Pine River, Canada
Current Conditions -  °F | °C
As of 12:00 PM on Friday 28 Nov 2014 (Local Time) from CYDN Reporting Station
Light Snow Light Snow  
Wind Chill: -12°   Ceiling: 2800
Heat Index:   Visibility: 8mi
Dew Point:   Wind: 13mph
Humidity: 85%   Direction: 80°E
Pressure: 29.93"   Gusts: NA
Location:  51.78°N, 100.53°W
Report Text: CYDN 281800Z AUTO 08011KT 8SM -SN BKN028 BKN038 M15/M17 A2993 RMK PRESFR SLP162
Loading
Personal Weather Stations






























Interactive Weather Map New forecast layout! Learn more

10-Day Weather Forecast

Advertisements
Track Severe Weather on mobile